sensor_id;sensor_type;location;lat;lon;timestamp;temperature;humidity
4050;DHT22;2039;50.894;6.888;2023-10-08T00:01:03;19.50;1.00
4050;DHT22;2039;50.894;6.888;2023-10-08T00:03:29;19.50;1.00
4050;DHT22;2039;50.894;6.888;2023-10-08T00:05:55;19.50;1.00
4050;DHT22;2039;50.894;6.888;2023-10-08T00:08:22;19.50;1.00
4050;DHT22;2039;50.894;6.888;2023-10-08T00:10:48;19.50;1.00
4050;DHT22;2039;50.894;6.888;2023-10-08T00:13:14;19.40;1.00
4050;DHT22;2039;50.894;6.888;2023-10-08T00:15:44;19.40;1.00
4050;DHT22;2039;50.894;6.888;2023-10-08T00:18:20;19.40;1.00
4050;DHT22;2039;50.894;6.888;2023-10-08T00:20:47;19.40;1.00
4050;DHT22;2039;50.894;6.888;2023-10-08T00:23:21;19.30;1.00
4050;DHT22;2039;50.894;6.888;2023-10-08T00:25:47;19.30;1.00
4050;DHT22;2039;50.894;6.888;2023-10-08T00:28:16;19.20;1.00
4050;DHT22;2039;50.894;6.888;2023-10-08T00:30:42;19.30;1.00
4050;DHT22;2039;50.894;6.888;2023-10-08T00:33:09;19.30;1.00
4050;DHT22;2039;50.894;6.888;2023-10-08T00:35:38;19.20;1.00
4050;DHT22;2039;50.894;6.888;2023-10-08T00:38:05;19.10;1.00
4050;DHT22;2039;50.894;6.888;2023-10-08T00:40:39;19.10;1.00
4050;DHT22;2039;50.894;6.888;2023-10-08T00:43:05;19.00;1.00
4050;DHT22;2039;50.894;6.888;2023-10-08T00:45:36;18.90;1.00
4050;DHT22;2039;50.894;6.888;2023-10-08T00:48:09;18.90;1.00
4050;DHT22;2039;50.894;6.888;2023-10-08T00:50:36;18.80;1.00
4050;DHT22;2039;50.894;6.888;2023-10-08T00:53:09;18.90;1.00
4050;DHT22;2039;50.894;6.888;2023-10-08T00:55:42;18.90;1.00
4050;DHT22;2039;50.894;6.888;2023-10-08T00:58:16;18.80;1.00
4050;DHT22;2039;50.894;6.888;2023-10-08T01:00:51;18.80;1.00
4050;DHT22;2039;50.894;6.888;2023-10-08T01:03:18;18.80;1.00
4050;DHT22;2039;50.894;6.888;2023-10-08T01:05:46;18.80;1.00
4050;DHT22;2039;50.894;6.888;2023-10-08T01:08:14;18.80;1.00
4050;DHT22;2039;50.894;6.888;2023-10-08T01:10:48;18.80;1.00
4050;DHT22;2039;50.894;6.888;2023-10-08T01:13:19;18.80;1.00
4050;DHT22;2039;50.894;6.888;2023-10-08T01:15:48;18.80;1.00
4050;DHT22;2039;50.894;6.888;2023-10-08T01:18:16;18.80;1.00
4050;DHT22;2039;50.894;6.888;2023-10-08T01:20:55;18.70;1.00
4050;DHT22;2039;50.894;6.888;2023-10-08T01:23:21;18.70;1.00
4050;DHT22;2039;50.894;6.888;2023-10-08T01:25:49;18.80;1.00
4050;DHT22;2039;50.894;6.888;2023-10-08T01:28:19;18.80;1.00
4050;DHT22;2039;50.894;6.888;2023-10-08T01:30:59;18.60;1.00
4050;DHT22;2039;50.894;6.888;2023-10-08T01:33:30;18.60;1.00
4050;DHT22;2039;50.894;6.888;2023-10-08T01:35:57;18.50;1.00
4050;DHT22;2039;50.894;6.888;2023-10-08T01:38:31;18.40;1.00
4050;DHT22;2039;50.894;6.888;2023-10-08T01:40:58;18.40;1.00
4050;DHT22;2039;50.894;6.888;2023-10-08T01:43:44;18.40;1.00
4050;DHT22;2039;50.894;6.888;2023-10-08T01:46:09;18.30;1.00
4050;DHT22;2039;50.894;6.888;2023-10-08T01:48:40;18.30;1.00
4050;DHT22;2039;50.894;6.888;2023-10-08T01:51:07;18.30;1.00
4050;DHT22;2039;50.894;6.888;2023-10-08T01:53:39;18.20;1.00
4050;DHT22;2039;50.894;6.888;2023-10-08T01:56:05;18.20;1.00
4050;DHT22;2039;50.894;6.888;2023-10-08T01:58:31;18.10;1.00
4050;DHT22;2039;50.894;6.888;2023-10-08T02:00:59;18.00;1.00
4050;DHT22;2039;50.894;6.888;2023-10-08T02:03:25;18.10;1.00
4050;DHT22;2039;50.894;6.888;2023-10-08T02:05:53;18.10;1.00
4050;DHT22;2039;50.894;6.888;2023-10-08T02:08:19;18.00;1.00
4050;DHT22;2039;50.894;6.888;2023-10-08T02:10:45;18.00;1.00
4050;DHT22;2039;50.894;6.888;2023-10-08T02:13:14;18.00;1.00
4050;DHT22;2039;50.894;6.888;2023-10-08T02:15:45;18.00;1.00
4050;DHT22;2039;50.894;6.888;2023-10-08T02:18:13;17.90;1.00
4050;DHT22;2039;50.894;6.888;2023-10-08T02:20:39;17.90;1.00
4050;DHT22;2039;50.894;6.888;2023-10-08T02:23:05;17.80;1.00
4050;DHT22;2039;50.894;6.888;2023-10-08T02:25:31;17.80;1.00
4050;DHT22;2039;50.894;6.888;2023-10-08T02:27:57;17.70;1.00
4050;DHT22;2039;50.894;6.888;2023-10-08T02:30:23;17.70;1.00
4050;DHT22;2039;50.894;6.888;2023-10-08T02:37:52;17.50;1.00
4050;DHT22;2039;50.894;6.888;2023-10-08T02:40:20;17.60;1.00
4050;DHT22;2039;50.894;6.888;2023-10-08T02:42:53;17.60;1.00
4050;DHT22;2039;50.894;6.888;2023-10-08T02:45:26;17.70;1.00
4050;DHT22;2039;50.894;6.888;2023-10-08T02:47:53;17.70;1.00
4050;DHT22;2039;50.894;6.888;2023-10-08T02:50:19;17.60;1.00
4050;DHT22;2039;50.894;6.888;2023-10-08T02:52:45;17.50;1.00
4050;DHT22;2039;50.894;6.888;2023-10-08T02:55:11;17.50;1.00
4050;DHT22;2039;50.894;6.888;2023-10-08T02:58:13;17.50;1.00
4050;DHT22;2039;50.894;6.888;2023-10-08T03:00:46;17.50;1.00
4050;DHT22;2039;50.894;6.888;2023-10-08T03:03:17;17.50;1.00
4050;DHT22;2039;50.894;6.888;2023-10-08T03:05:51;17.50;1.00
4050;DHT22;2039;50.894;6.888;2023-10-08T03:08:18;17.50;1.00
4050;DHT22;2039;50.894;6.888;2023-10-08T03:10:52;17.50;1.00
4050;DHT22;2039;50.894;6.888;2023-10-08T03:13:44;17.50;1.00
4050;DHT22;2039;50.894;6.888;2023-10-08T03:16:13;17.40;1.80
4050;DHT22;2039;50.894;6.888;2023-10-08T03:18:39;17.40;4.00
4050;DHT22;2039;50.894;6.888;2023-10-08T03:21:10;17.40;1.00
4050;DHT22;2039;50.894;6.888;2023-10-08T03:23:59;17.50;2.00
4050;DHT22;2039;50.894;6.888;2023-10-08T03:26:34;17.50;1.00
4050;DHT22;2039;50.894;6.888;2023-10-08T03:29:02;17.50;1.00
4050;DHT22;2039;50.894;6.888;2023-10-08T03:31:33;17.50;1.00
4050;DHT22;2039;50.894;6.888;2023-10-08T03:34:15;17.40;1.00
4050;DHT22;2039;50.894;6.888;2023-10-08T03:36:42;17.40;1.00
4050;DHT22;2039;50.894;6.888;2023-10-08T03:39:14;17.40;1.00
4050;DHT22;2039;50.894;6.888;2023-10-08T03:41:41;17.30;1.00
4050;DHT22;2039;50.894;6.888;2023-10-08T03:44:07;17.40;1.00
4050;DHT22;2039;50.894;6.888;2023-10-08T03:46:40;17.40;1.00
4050;DHT22;2039;50.894;6.888;2023-10-08T03:49:12;17.40;1.00
4050;DHT22;2039;50.894;6.888;2023-10-08T03:51:47;17.30;1.00
4050;DHT22;2039;50.894;6.888;2023-10-08T03:54:17;17.20;3.10
4050;DHT22;2039;50.894;6.888;2023-10-08T03:56:55;17.20;5.40
4050;DHT22;2039;50.894;6.888;2023-10-08T03:59:21;17.20;8.20
4050;DHT22;2039;50.894;6.888;2023-10-08T04:02:05;17.20;9.50
4050;DHT22;2039;50.894;6.888;2023-10-08T04:04:54;17.10;17.60
4050;DHT22;2039;50.894;6.888;2023-10-08T04:07:24;17.00;21.50
4050;DHT22;2039;50.894;6.888;2023-10-08T04:09:54;17.00;25.70
4050;DHT22;2039;50.894;6.888;2023-10-08T04:12:43;17.10;14.10
4050;DHT22;2039;50.894;6.888;2023-10-08T04:15:10;17.10;10.50
4050;DHT22;2039;50.894;6.888;2023-10-08T04:17:38;17.10;16.90
4050;DHT22;2039;50.894;6.888;2023-10-08T04:20:16;17.10;24.50
4050;DHT22;2039;50.894;6.888;2023-10-08T04:23:02;17.10;27.90
4050;DHT22;2039;50.894;6.888;2023-10-08T04:25:31;17.10;32.70
4050;DHT22;2039;50.894;6.888;2023-10-08T04:28:01;17.00;30.60
4050;DHT22;2039;50.894;6.888;2023-10-08T04:30:35;17.10;42.10
4050;DHT22;2039;50.894;6.888;2023-10-08T04:33:03;17.00;39.70
4050;DHT22;2039;50.894;6.888;2023-10-08T04:35:35;17.10;22.30
4050;DHT22;2039;50.894;6.888;2023-10-08T04:38:14;17.10;20.70
4050;DHT22;2039;50.894;6.888;2023-10-08T04:40:43;17.10;16.20
4050;DHT22;2039;50.894;6.888;2023-10-08T04:43:17;17.20;6.40
4050;DHT22;2039;50.894;6.888;2023-10-08T04:45:57;17.20;4.20
4050;DHT22;2039;50.894;6.888;2023-10-08T04:48:26;17.20;1.00
4050;DHT22;2039;50.894;6.888;2023-10-08T04:50:57;17.20;1.00
4050;DHT22;2039;50.894;6.888;2023-10-08T04:53:32;17.20;1.00
4050;DHT22;2039;50.894;6.888;2023-10-08T04:56:03;17.20;1.00
4050;DHT22;2039;50.894;6.888;2023-10-08T04:58:33;17.20;1.00
4050;DHT22;2039;50.894;6.888;2023-10-08T05:01:02;17.20;1.00
4050;DHT22;2039;50.894;6.888;2023-10-08T05:03:46;17.10;1.00
4050;DHT22;2039;50.894;6.888;2023-10-08T05:06:31;17.00;1.00
4050;DHT22;2039;50.894;6.888;2023-10-08T05:09:07;17.00;1.00
4050;DHT22;2039;50.894;6.888;2023-10-08T05:11:36;17.10;1.00
4050;DHT22;2039;50.894;6.888;2023-10-08T05:14:19;17.10;1.00
4050;DHT22;2039;50.894;6.888;2023-10-08T05:17:15;17.10;1.00
4050;DHT22;2039;50.894;6.888;2023-10-08T05:19:44;17.10;1.00
4050;DHT22;2039;50.894;6.888;2023-10-08T05:22:41;17.10;1.00
4050;DHT22;2039;50.894;6.888;2023-10-08T05:25:11;17.00;1.00
4050;DHT22;2039;50.894;6.888;2023-10-08T05:27:53;16.90;1.00
4050;DHT22;2039;50.894;6.888;2023-10-08T05:30:20;16.90;1.00
4050;DHT22;2039;50.894;6.888;2023-10-08T05:33:08;16.90;1.00
4050;DHT22;2039;50.894;6.888;2023-10-08T05:35:52;16.70;6.60
4050;DHT22;2039;50.894;6.888;2023-10-08T05:38:28;16.80;4.00
4050;DHT22;2039;50.894;6.888;2023-10-08T05:41:13;16.70;5.20
4050;DHT22;2039;50.894;6.888;2023-10-08T05:44:18;16.80;3.60
4050;DHT22;2039;50.894;6.888;2023-10-08T05:46:44;16.80;2.20
4050;DHT22;2039;50.894;6.888;2023-10-08T05:49:17;16.80;2.50
4050;DHT22;2039;50.894;6.888;2023-10-08T05:52:01;16.80;6.30
4050;DHT22;2039;50.894;6.888;2023-10-08T05:54:27;16.80;11.80
4050;DHT22;2039;50.894;6.888;2023-10-08T05:57:06;16.70;14.90
4050;DHT22;2039;50.894;6.888;2023-10-08T05:59:53;16.60;18.90
4050;DHT22;2039;50.894;6.888;2023-10-08T06:02:23;16.60;18.40
4050;DHT22;2039;50.894;6.888;2023-10-08T06:05:00;16.60;19.30
4050;DHT22;2039;50.894;6.888;2023-10-08T06:07:42;16.60;20.60
4050;DHT22;2039;50.894;6.888;2023-10-08T06:12:56;16.60;17.30
4050;DHT22;2039;50.894;6.888;2023-10-08T06:17:59;16.70;19.10
4050;DHT22;2039;50.894;6.888;2023-10-08T06:20:29;16.60;22.50
4050;DHT22;2039;50.894;6.888;2023-10-08T06:22:55;16.60;25.00
4050;DHT22;2039;50.894;6.888;2023-10-08T06:25:28;16.70;24.60
4050;DHT22;2039;50.894;6.888;2023-10-08T06:27:55;16.70;20.70
4050;DHT22;2039;50.894;6.888;2023-10-08T06:30:23;16.80;19.20
4050;DHT22;2039;50.894;6.888;2023-10-08T06:32:50;16.80;18.60
4050;DHT22;2039;50.894;6.888;2023-10-08T06:35:16;16.70;30.40
4050;DHT22;2039;50.894;6.888;2023-10-08T06:37:53;16.70;45.80
4050;DHT22;2039;50.894;6.888;2023-10-08T06:40:25;16.70;57.70
4050;DHT22;2039;50.894;6.888;2023-10-08T06:43:04;16.60;69.00
4050;DHT22;2039;50.894;6.888;2023-10-08T06:45:39;16.60;79.10
4050;DHT22;2039;50.894;6.888;2023-10-08T06:48:06;16.40;78.70
4050;DHT22;2039;50.894;6.888;2023-10-08T06:50:32;16.50;75.50
4050;DHT22;2039;50.894;6.888;2023-10-08T06:53:00;16.50;76.70
4050;DHT22;2039;50.894;6.888;2023-10-08T06:55:31;16.50;74.80
4050;DHT22;2039;50.894;6.888;2023-10-08T06:57:59;16.70;71.50
4050;DHT22;2039;50.894;6.888;2023-10-08T07:00:26;16.80;56.80
4050;DHT22;2039;50.894;6.888;2023-10-08T07:03:10;16.90;43.00
4050;DHT22;2039;50.894;6.888;2023-10-08T07:05:37;17.00;38.50
4050;DHT22;2039;50.894;6.888;2023-10-08T07:08:07;17.20;33.70
4050;DHT22;2039;50.894;6.888;2023-10-08T07:10:33;17.20;29.40
4050;DHT22;2039;50.894;6.888;2023-10-08T07:13:02;17.30;29.60
4050;DHT22;2039;50.894;6.888;2023-10-08T07:15:34;17.30;29.90
4050;DHT22;2039;50.894;6.888;2023-10-08T07:18:05;17.40;29.20
4050;DHT22;2039;50.894;6.888;2023-10-08T07:20:37;17.50;22.30
4050;DHT22;2039;50.894;6.888;2023-10-08T07:23:08;17.50;25.20
4050;DHT22;2039;50.894;6.888;2023-10-08T07:25:54;17.50;28.80
4050;DHT22;2039;50.894;6.888;2023-10-08T07:28:35;17.60;24.80
4050;DHT22;2039;50.894;6.888;2023-10-08T07:31:01;17.60;24.80
4050;DHT22;2039;50.894;6.888;2023-10-08T07:33:28;17.50;26.10
4050;DHT22;2039;50.894;6.888;2023-10-08T07:36:02;17.60;29.10
4050;DHT22;2039;50.894;6.888;2023-10-08T07:38:38;17.60;27.70
4050;DHT22;2039;50.894;6.888;2023-10-08T07:41:05;17.70;32.40
4050;DHT22;2039;50.894;6.888;2023-10-08T07:43:31;17.80;25.30
4050;DHT22;2039;50.894;6.888;2023-10-08T07:45:58;17.90;17.80
4050;DHT22;2039;50.894;6.888;2023-10-08T07:48:24;17.90;12.60
4050;DHT22;2039;50.894;6.888;2023-10-08T07:50:55;18.00;15.10
4050;DHT22;2039;50.894;6.888;2023-10-08T07:53:23;18.00;12.50
4050;DHT22;2039;50.894;6.888;2023-10-08T07:55:50;18.10;10.80
4050;DHT22;2039;50.894;6.888;2023-10-08T07:58:17;18.20;1.00
4050;DHT22;2039;50.894;6.888;2023-10-08T08:00:44;18.10;3.70
4050;DHT22;2039;50.894;6.888;2023-10-08T08:03:20;18.20;2.70
4050;DHT22;2039;50.894;6.888;2023-10-08T08:05:47;18.20;1.00
4050;DHT22;2039;50.894;6.888;2023-10-08T08:08:13;18.20;1.00
4050;DHT22;2039;50.894;6.888;2023-10-08T08:10:44;18.20;1.70
4050;DHT22;2039;50.894;6.888;2023-10-08T08:13:10;18.40;1.00
4050;DHT22;2039;50.894;6.888;2023-10-08T08:15:36;18.40;1.70
4050;DHT22;2039;50.894;6.888;2023-10-08T08:18:07;18.40;3.50
4050;DHT22;2039;50.894;6.888;2023-10-08T08:20:35;18.40;3.00
4050;DHT22;2039;50.894;6.888;2023-10-08T08:23:05;18.40;1.00
4050;DHT22;2039;50.894;6.888;2023-10-08T08:25:40;18.40;1.00
4050;DHT22;2039;50.894;6.888;2023-10-08T08:28:32;18.40;1.00
4050;DHT22;2039;50.894;6.888;2023-10-08T08:31:05;18.40;1.00
4050;DHT22;2039;50.894;6.888;2023-10-08T08:33:39;18.40;1.00
4050;DHT22;2039;50.894;6.888;2023-10-08T08:36:22;18.40;1.00
4050;DHT22;2039;50.894;6.888;2023-10-08T08:38:48;18.40;1.00
4050;DHT22;2039;50.894;6.888;2023-10-08T08:41:14;18.60;1.00
4050;DHT22;2039;50.894;6.888;2023-10-08T08:43:47;18.60;1.00
4050;DHT22;2039;50.894;6.888;2023-10-08T08:46:13;18.70;1.00
4050;DHT22;2039;50.894;6.888;2023-10-08T08:48:43;18.70;1.00
4050;DHT22;2039;50.894;6.888;2023-10-08T08:51:12;18.60;1.00
4050;DHT22;2039;50.894;6.888;2023-10-08T08:53:39;18.70;1.00
4050;DHT22;2039;50.894;6.888;2023-10-08T08:56:07;18.70;1.00
4050;DHT22;2039;50.894;6.888;2023-10-08T08:58:35;18.70;1.00
4050;DHT22;2039;50.894;6.888;2023-10-08T09:01:03;18.70;1.00
4050;DHT22;2039;50.894;6.888;2023-10-08T09:03:30;18.70;1.00
4050;DHT22;2039;50.894;6.888;2023-10-08T09:05:57;18.80;1.00
4050;DHT22;2039;50.894;6.888;2023-10-08T09:08:27;18.90;1.00
4050;DHT22;2039;50.894;6.888;2023-10-08T09:10:57;19.00;1.00
4050;DHT22;2039;50.894;6.888;2023-10-08T09:13:27;19.10;1.00
4050;DHT22;2039;50.894;6.888;2023-10-08T09:18:29;19.40;1.00
4050;DHT22;2039;50.894;6.888;2023-10-08T09:21:07;19.40;1.00
4050;DHT22;2039;50.894;6.888;2023-10-08T09:23:42;19.40;1.00
4050;DHT22;2039;50.894;6.888;2023-10-08T09:26:13;19.40;1.00
4050;DHT22;2039;50.894;6.888;2023-10-08T09:28:44;19.50;1.00
4050;DHT22;2039;50.894;6.888;2023-10-08T09:31:12;19.60;1.00
4050;DHT22;2039;50.894;6.888;2023-10-08T09:33:38;19.80;1.00
4050;DHT22;2039;50.894;6.888;2023-10-08T09:36:05;19.90;1.00
4050;DHT22;2039;50.894;6.888;2023-10-08T09:38:36;19.90;1.00
4050;DHT22;2039;50.894;6.888;2023-10-08T09:41:02;20.00;1.00
4050;DHT22;2039;50.894;6.888;2023-10-08T09:43:29;20.00;1.00
4050;DHT22;2039;50.894;6.888;2023-10-08T09:46:08;20.00;1.00
4050;DHT22;2039;50.894;6.888;2023-10-08T09:48:37;20.00;1.00
4050;DHT22;2039;50.894;6.888;2023-10-08T09:51:03;20.00;1.00
4050;DHT22;2039;50.894;6.888;2023-10-08T09:53:51;20.00;1.00
4050;DHT22;2039;50.894;6.888;2023-10-08T09:56:19;20.00;1.00
4050;DHT22;2039;50.894;6.888;2023-10-08T09:58:46;19.80;1.00
4050;DHT22;2039;50.894;6.888;2023-10-08T10:01:14;19.90;1.00
4050;DHT22;2039;50.894;6.888;2023-10-08T10:03:44;20.00;1.00
4050;DHT22;2039;50.894;6.888;2023-10-08T10:06:18;20.00;1.00
4050;DHT22;2039;50.894;6.888;2023-10-08T10:08:45;20.10;1.00
4050;DHT22;2039;50.894;6.888;2023-10-08T10:11:11;20.10;1.00
4050;DHT22;2039;50.894;6.888;2023-10-08T10:13:45;20.10;1.00
4050;DHT22;2039;50.894;6.888;2023-10-08T10:16:18;20.00;1.00
4050;DHT22;2039;50.894;6.888;2023-10-08T10:18:45;20.00;1.00
4050;DHT22;2039;50.894;6.888;2023-10-08T10:23:45;20.00;1.00
4050;DHT22;2039;50.894;6.888;2023-10-08T10:26:33;20.10;1.00
4050;DHT22;2039;50.894;6.888;2023-10-08T10:31:45;20.10;1.00
4050;DHT22;2039;50.894;6.888;2023-10-08T10:34:16;20.00;1.00
4050;DHT22;2039;50.894;6.888;2023-10-08T10:36:47;20.00;1.00
4050;DHT22;2039;50.894;6.888;2023-10-08T10:39:20;20.10;1.00
4050;DHT22;2039;50.894;6.888;2023-10-08T10:41:56;20.10;1.00
4050;DHT22;2039;50.894;6.888;2023-10-08T10:44:42;20.10;1.00
4050;DHT22;2039;50.894;6.888;2023-10-08T10:47:10;20.30;1.00
4050;DHT22;2039;50.894;6.888;2023-10-08T10:49:52;20.30;1.00
4050;DHT22;2039;50.894;6.888;2023-10-08T10:52:28;20.60;1.00
4050;DHT22;2039;50.894;6.888;2023-10-08T10:55:11;20.80;1.00
4050;DHT22;2039;50.894;6.888;2023-10-08T10:57:57;21.00;1.00
4050;DHT22;2039;50.894;6.888;2023-10-08T11:00:37;21.10;1.00
4050;DHT22;2039;50.894;6.888;2023-10-08T11:03:05;21.10;1.00
4050;DHT22;2039;50.894;6.888;2023-10-08T11:05:55;21.20;1.00
4050;DHT22;2039;50.894;6.888;2023-10-08T11:08:25;21.30;1.00
4050;DHT22;2039;50.894;6.888;2023-10-08T11:10:52;21.40;1.00
4050;DHT22;2039;50.894;6.888;2023-10-08T11:13:20;21.70;1.00
4050;DHT22;2039;50.894;6.888;2023-10-08T11:15:49;21.80;1.00
4050;DHT22;2039;50.894;6.888;2023-10-08T11:18:22;22.00;1.00
4050;DHT22;2039;50.894;6.888;2023-10-08T11:20:49;22.20;1.00
4050;DHT22;2039;50.894;6.888;2023-10-08T11:23:36;22.20;1.00
4050;DHT22;2039;50.894;6.888;2023-10-08T11:26:05;22.30;1.00
4050;DHT22;2039;50.894;6.888;2023-10-08T11:28:33;22.30;1.00
4050;DHT22;2039;50.894;6.888;2023-10-08T11:31:04;22.40;1.00
4050;DHT22;2039;50.894;6.888;2023-10-08T11:33:38;22.40;1.00
4050;DHT22;2039;50.894;6.888;2023-10-08T11:36:05;22.40;1.00
4050;DHT22;2039;50.894;6.888;2023-10-08T11:38:53;22.30;1.00
4050;DHT22;2039;50.894;6.888;2023-10-08T11:41:26;22.40;1.00
4050;DHT22;2039;50.894;6.888;2023-10-08T11:43:54;22.40;1.00
4050;DHT22;2039;50.894;6.888;2023-10-08T11:46:28;22.30;1.00
4050;DHT22;2039;50.894;6.888;2023-10-08T11:48:59;22.30;1.00
4050;DHT22;2039;50.894;6.888;2023-10-08T11:51:31;22.40;1.00
4050;DHT22;2039;50.894;6.888;2023-10-08T11:53:58;22.40;1.00
4050;DHT22;2039;50.894;6.888;2023-10-08T11:56:25;22.30;1.00
4050;DHT22;2039;50.894;6.888;2023-10-08T11:58:51;22.30;1.00
4050;DHT22;2039;50.894;6.888;2023-10-08T12:01:18;22.20;1.00
4050;DHT22;2039;50.894;6.888;2023-10-08T12:03:47;22.20;1.00
4050;DHT22;2039;50.894;6.888;2023-10-08T12:06:16;22.20;1.00
4050;DHT22;2039;50.894;6.888;2023-10-08T12:08:47;22.40;1.00
4050;DHT22;2039;50.894;6.888;2023-10-08T12:11:15;22.50;1.00
4050;DHT22;2039;50.894;6.888;2023-10-08T12:13:42;22.50;1.00
4050;DHT22;2039;50.894;6.888;2023-10-08T12:16:16;22.40;1.00
4050;DHT22;2039;50.894;6.888;2023-10-08T12:18:48;22.20;1.00
4050;DHT22;2039;50.894;6.888;2023-10-08T12:21:17;22.10;1.00
4050;DHT22;2039;50.894;6.888;2023-10-08T12:23:43;21.90;1.00
4050;DHT22;2039;50.894;6.888;2023-10-08T12:26:10;21.90;1.00
4050;DHT22;2039;50.894;6.888;2023-10-08T12:28:44;21.70;1.00
4050;DHT22;2039;50.894;6.888;2023-10-08T12:31:17;21.70;1.00
4050;DHT22;2039;50.894;6.888;2023-10-08T12:33:48;21.50;1.00
4050;DHT22;2039;50.894;6.888;2023-10-08T12:36:14;21.40;1.00
4050;DHT22;2039;50.894;6.888;2023-10-08T12:38:43;21.50;1.00
4050;DHT22;2039;50.894;6.888;2023-10-08T12:41:11;21.50;1.00
4050;DHT22;2039;50.894;6.888;2023-10-08T12:43:41;21.40;1.00
4050;DHT22;2039;50.894;6.888;2023-10-08T12:46:18;21.50;1.00
4050;DHT22;2039;50.894;6.888;2023-10-08T12:48:47;21.40;1.00
4050;DHT22;2039;50.894;6.888;2023-10-08T12:51:18;21.30;1.00
4050;DHT22;2039;50.894;6.888;2023-10-08T12:53:44;21.20;1.00
4050;DHT22;2039;50.894;6.888;2023-10-08T12:56:17;21.20;1.00
4050;DHT22;2039;50.894;6.888;2023-10-08T12:58:46;21.10;1.00
4050;DHT22;2039;50.894;6.888;2023-10-08T13:01:17;21.20;1.00
4050;DHT22;2039;50.894;6.888;2023-10-08T13:03:46;21.20;1.00
4050;DHT22;2039;50.894;6.888;2023-10-08T13:06:19;21.10;1.00
4050;DHT22;2039;50.894;6.888;2023-10-08T13:08:51;21.10;1.00
4050;DHT22;2039;50.894;6.888;2023-10-08T13:11:22;21.10;1.00
4050;DHT22;2039;50.894;6.888;2023-10-08T13:13:51;21.10;1.00
4050;DHT22;2039;50.894;6.888;2023-10-08T13:16:20;21.20;1.00
4050;DHT22;2039;50.894;6.888;2023-10-08T13:18:49;21.30;1.00
4050;DHT22;2039;50.894;6.888;2023-10-08T13:21:16;21.40;1.00
4050;DHT22;2039;50.894;6.888;2023-10-08T13:23:42;21.50;1.00
4050;DHT22;2039;50.894;6.888;2023-10-08T13:26:08;21.50;1.00
4050;DHT22;2039;50.894;6.888;2023-10-08T13:28:37;21.50;1.00
4050;DHT22;2039;50.894;6.888;2023-10-08T13:31:05;21.50;1.00
4050;DHT22;2039;50.894;6.888;2023-10-08T13:33:41;21.40;1.00
4050;DHT22;2039;50.894;6.888;2023-10-08T13:36:15;21.30;1.00
4050;DHT22;2039;50.894;6.888;2023-10-08T13:38:41;21.30;1.00
4050;DHT22;2039;50.894;6.888;2023-10-08T13:41:07;21.30;1.00
4050;DHT22;2039;50.894;6.888;2023-10-08T13:43:47;21.20;1.00
4050;DHT22;2039;50.894;6.888;2023-10-08T13:46:14;21.20;1.00
4050;DHT22;2039;50.894;6.888;2023-10-08T13:48:41;21.20;4.90
4050;DHT22;2039;50.894;6.888;2023-10-08T13:51:08;21.20;3.20
4050;DHT22;2039;50.894;6.888;2023-10-08T13:53:47;21.20;3.40
4050;DHT22;2039;50.894;6.888;2023-10-08T13:56:16;21.30;4.90
4050;DHT22;2039;50.894;6.888;2023-10-08T13:58:44;21.30;3.40
4050;DHT22;2039;50.894;6.888;2023-10-08T14:01:12;21.30;1.00
4050;DHT22;2039;50.894;6.888;2023-10-08T14:03:46;21.30;5.30
4050;DHT22;2039;50.894;6.888;2023-10-08T14:06:12;21.40;4.20
4050;DHT22;2039;50.894;6.888;2023-10-08T14:08:39;21.50;1.00
4050;DHT22;2039;50.894;6.888;2023-10-08T14:11:05;21.50;1.00
4050;DHT22;2039;50.894;6.888;2023-10-08T14:13:31;21.60;1.00
4050;DHT22;2039;50.894;6.888;2023-10-08T14:16:01;21.60;1.00
4050;DHT22;2039;50.894;6.888;2023-10-08T14:18:34;21.50;1.00
4050;DHT22;2039;50.894;6.888;2023-10-08T14:21:09;21.50;1.00
4050;DHT22;2039;50.894;6.888;2023-10-08T14:23:36;21.30;1.00
4050;DHT22;2039;50.894;6.888;2023-10-08T14:26:08;21.30;1.00
4050;DHT22;2039;50.894;6.888;2023-10-08T14:28:35;21.00;2.40
4050;DHT22;2039;50.894;6.888;2023-10-08T14:31:16;21.00;9.80
4050;DHT22;2039;50.894;6.888;2023-10-08T14:33:42;21.00;12.70
4050;DHT22;2039;50.894;6.888;2023-10-08T14:36:24;21.00;16.90
4050;DHT22;2039;50.894;6.888;2023-10-08T14:39:08;21.00;17.70
4050;DHT22;2039;50.894;6.888;2023-10-08T14:41:52;21.00;21.70
4050;DHT22;2039;50.894;6.888;2023-10-08T14:44:44;20.70;23.60
4050;DHT22;2039;50.894;6.888;2023-10-08T14:47:09;20.80;29.60
4050;DHT22;2039;50.894;6.888;2023-10-08T14:49:35;20.70;34.80
4050;DHT22;2039;50.894;6.888;2023-10-08T14:52:01;20.70;31.20
4050;DHT22;2039;50.894;6.888;2023-10-08T14:54:30;20.80;29.40
4050;DHT22;2039;50.894;6.888;2023-10-08T14:56:56;20.90;31.90
4050;DHT22;2039;50.894;6.888;2023-10-08T14:59:22;20.90;32.00
4050;DHT22;2039;50.894;6.888;2023-10-08T15:01:49;20.90;34.80
4050;DHT22;2039;50.894;6.888;2023-10-08T15:04:15;20.80;42.40
4050;DHT22;2039;50.894;6.888;2023-10-08T15:06:43;20.80;43.60
4050;DHT22;2039;50.894;6.888;2023-10-08T15:09:09;20.80;50.90
4050;DHT22;2039;50.894;6.888;2023-10-08T15:11:35;20.80;56.40
4050;DHT22;2039;50.894;6.888;2023-10-08T15:14:04;20.70;39.80
4050;DHT22;2039;50.894;6.888;2023-10-08T15:16:38;20.70;44.90
4050;DHT22;2039;50.894;6.888;2023-10-08T15:19:07;20.70;49.90
4050;DHT22;2039;50.894;6.888;2023-10-08T15:21:37;20.60;45.40
4050;DHT22;2039;50.894;6.888;2023-10-08T15:24:05;20.60;39.00
4050;DHT22;2039;50.894;6.888;2023-10-08T15:26:36;20.40;46.30
4050;DHT22;2039;50.894;6.888;2023-10-08T15:29:02;20.40;48.40
4050;DHT22;2039;50.894;6.888;2023-10-08T15:31:28;20.50;44.80
4050;DHT22;2039;50.894;6.888;2023-10-08T15:33:54;20.50;41.90
4050;DHT22;2039;50.894;6.888;2023-10-08T15:36:20;20.70;32.50
4050;DHT22;2039;50.894;6.888;2023-10-08T15:38:46;20.60;25.50
4050;DHT22;2039;50.894;6.888;2023-10-08T15:41:12;20.50;35.10
4050;DHT22;2039;50.894;6.888;2023-10-08T15:43:39;20.50;30.20
4050;DHT22;2039;50.894;6.888;2023-10-08T15:46:05;20.50;36.50
4050;DHT22;2039;50.894;6.888;2023-10-08T15:48:31;20.40;37.10
4050;DHT22;2039;50.894;6.888;2023-10-08T15:50:59;20.40;28.50
4050;DHT22;2039;50.894;6.888;2023-10-08T15:53:25;20.30;34.90
4050;DHT22;2039;50.894;6.888;2023-10-08T15:55:51;20.40;39.30
4050;DHT22;2039;50.894;6.888;2023-10-08T15:58:17;20.50;33.40
4050;DHT22;2039;50.894;6.888;2023-10-08T16:00:42;20.50;31.00
4050;DHT22;2039;50.894;6.888;2023-10-08T16:03:08;20.40;30.50
4050;DHT22;2039;50.894;6.888;2023-10-08T16:05:35;20.60;29.30
4050;DHT22;2039;50.894;6.888;2023-10-08T16:08:01;20.60;30.20
4050;DHT22;2039;50.894;6.888;2023-10-08T16:10:27;20.50;29.00
4050;DHT22;2039;50.894;6.888;2023-10-08T16:12:53;20.50;28.90
4050;DHT22;2039;50.894;6.888;2023-10-08T16:15:19;20.50;30.80
4050;DHT22;2039;50.894;6.888;2023-10-08T16:17:47;20.40;42.30
4050;DHT22;2039;50.894;6.888;2023-10-08T16:20:13;20.30;44.40
4050;DHT22;2039;50.894;6.888;2023-10-08T16:22:43;20.20;47.00
4050;DHT22;2039;50.894;6.888;2023-10-08T16:25:11;20.20;46.40
4050;DHT22;2039;50.894;6.888;2023-10-08T16:27:44;20.20;46.40
4050;DHT22;2039;50.894;6.888;2023-10-08T16:30:15;20.20;52.00
4050;DHT22;2039;50.894;6.888;2023-10-08T16:32:41;20.00;60.10
4050;DHT22;2039;50.894;6.888;2023-10-08T16:35:08;20.10;54.70
4050;DHT22;2039;50.894;6.888;2023-10-08T16:37:34;20.00;60.40
4050;DHT22;2039;50.894;6.888;2023-10-08T16:40:00;19.90;69.70
4050;DHT22;2039;50.894;6.888;2023-10-08T16:42:26;19.80;79.30
4050;DHT22;2039;50.894;6.888;2023-10-08T16:44:51;19.80;75.80
4050;DHT22;2039;50.894;6.888;2023-10-08T16:47:17;19.80;71.70
4050;DHT22;2039;50.894;6.888;2023-10-08T16:49:43;19.80;82.20
4050;DHT22;2039;50.894;6.888;2023-10-08T16:52:09;19.80;73.50
4050;DHT22;2039;50.894;6.888;2023-10-08T16:54:35;19.80;71.10